Aviation Digital Data Service (ADDS)

Output produced by METARs form (1154 UTC 25 June 2019)
found at http://www.aviationweather.gov/metar/data/
 
METAR text: CYTZ 251143Z AUTO 22003KT 200V260 6SM BR CLR 17/16 A2971 RMK SLP061 DENSITY ALT 700FT
Conditions at: CYTZ (TORONTO IL VOR , ON, CA) observed 1143 UTC 25 June 2019
Temperature: 17.0°C (63°F)
Dewpoint: 16.0°C (61°F) [RH = 94%]
Pressure (altimeter): 29.71 inches Hg (1006.2 mb)
[Sea-level pressure: 1006.1 mb]
Winds: from the SW (220 degrees) at 3 MPH (3 knots; 1.5 m/s)
Visibility: 6 miles (10 km)
Ceiling: at least 12,000 feet AGL
Clouds: sky clear below 12,000 feet AGL
Weather: BR  (mist)

METAR text: CYTZ 251117Z AUTO 22003KT 3SM BR FEW003 17/17 A2970 RMK SLP059 DENSITY ALT 700FT
Conditions at: CYTZ (TORONTO IL VOR , ON, CA) observed 1117 UTC 25 June 2019
Temperature: 17.0°C (63°F)
Dewpoint: 17.0°C (63°F) [RH = 100%]
Pressure (altimeter): 29.70 inches Hg (1005.8 mb)
[Sea-level pressure: 1005.9 mb]
Winds: from the SW (220 degrees) at 3 MPH (3 knots; 1.5 m/s)
Visibility: 3 miles ( 5 km)
Ceiling: at least 12,000 feet AGL
Clouds: few clouds at 300 feet AGL
Weather: BR  (mist)

METAR text: CYTZ 251109Z AUTO 24003KT 2 1/2SM BR FEW003 17/16 A2970 RMK SLP059 DENSITY ALT 700FT
Conditions at: CYTZ (TORONTO IL VOR , ON, CA) observed 1109 UTC 25 June 2019
Temperature: 17.0°C (63°F)
Dewpoint: 16.0°C (61°F) [RH = 94%]
Pressure (altimeter): 29.70 inches Hg (1005.8 mb)
[Sea-level pressure: 1005.9 mb]
Winds: from the WSW (240 degrees) at 3 MPH (3 knots; 1.5 m/s)
Visibility: 2.50 miles (4.02 km)
Ceiling: at least 12,000 feet AGL
Clouds: few clouds at 300 feet AGL
Weather: BR  (mist)

METAR text: CYTZ 251101Z AUTO 24003KT 200V280 3SM BR SCT003 17/16 A2970 RMK SLP058 DENSITY ALT 700FT
Conditions at: CYTZ (TORONTO IL VOR , ON, CA) observed 1101 UTC 25 June 2019
Temperature: 17.0°C (63°F)
Dewpoint: 16.0°C (61°F) [RH = 94%]
Pressure (altimeter): 29.70 inches Hg (1005.8 mb)
[Sea-level pressure: 1005.8 mb]
Winds: from the WSW (240 degrees) at 3 MPH (3 knots; 1.5 m/s)
Visibility: 3 miles ( 5 km)
Ceiling: at least 12,000 feet AGL
Clouds: scattered clouds at 300 feet AGL
Weather: BR  (mist)

METAR text: CYTZ 251100Z AUTO 24003KT 200V290 3SM BR BKN003 17/16 A2970 RMK SLP058 DENSITY ALT 700FT
Conditions at: CYTZ (TORONTO IL VOR , ON, CA) observed 1100 UTC 25 June 2019
Temperature: 17.0°C (63°F)
Dewpoint: 16.0°C (61°F) [RH = 94%]
Pressure (altimeter): 29.70 inches Hg (1005.8 mb)
[Sea-level pressure: 1005.8 mb]
Winds: from the WSW (240 degrees) at 3 MPH (3 knots; 1.5 m/s)
Visibility: 3 miles ( 5 km)
Ceiling: 300 feet AGL
Clouds: broken clouds at 300 feet AGL
Weather: BR  (mist)

METAR text: CYTZ 251010Z AUTO 27003KT 230V290 5SM BR BKN003 16/15 A2969 RMK SLP054 DENSITY ALT 600FT
Conditions at: CYTZ (TORONTO IL VOR , ON, CA) observed 1010 UTC 25 June 2019
Temperature: 16.0°C (61°F)
Dewpoint: 15.0°C (59°F) [RH = 94%]
Pressure (altimeter): 29.69 inches Hg (1005.5 mb)
[Sea-level pressure: 1005.4 mb]
Winds: from the W (270 degrees) at 3 MPH (3 knots; 1.5 m/s)
Visibility: 5 miles ( 8 km)
Ceiling: 300 feet AGL
Clouds: broken clouds at 300 feet AGL
Weather: BR  (mist)

METAR text: CYTZ 251007Z AUTO 27002KT 6SM BR BKN003 16/15 A2969 RMK SLP054 DENSITY ALT 600FT
Conditions at: CYTZ (TORONTO IL VOR , ON, CA) observed 1007 UTC 25 June 2019
Temperature: 16.0°C (61°F)
Dewpoint: 15.0°C (59°F) [RH = 94%]
Pressure (altimeter): 29.69 inches Hg (1005.5 mb)
[Sea-level pressure: 1005.4 mb]
Winds: from the W (270 degrees) at 2 MPH (2 knots; 1.0 m/s)
Visibility: 6 miles (10 km)
Ceiling: 300 feet AGL
Clouds: broken clouds at 300 feet AGL
Weather: BR  (mist)

METAR text: CYTZ 251000Z AUTO 27002KT 7SM SCT003 16/15 A2968 RMK SLP053 DENSITY ALT 600FT
Conditions at: CYTZ (TORONTO IL VOR , ON, CA) observed 1000 UTC 25 June 2019
Temperature: 16.0°C (61°F)
Dewpoint: 15.0°C (59°F) [RH = 94%]
Pressure (altimeter): 29.68 inches Hg (1005.2 mb)
[Sea-level pressure: 1005.3 mb]
Winds: from the W (270 degrees) at 2 MPH (2 knots; 1.0 m/s)
Visibility: 7 miles (11 km)
Ceiling: at least 12,000 feet AGL
Clouds: scattered clouds at 300 feet AGL
Weather: no significant weather observed at this time

METAR text: CYTZ 250923Z AUTO 00000KT 6SM BR CLR 15/15 A2967 RMK SLP049 DENSITY ALT 500FT
Conditions at: CYTZ (TORONTO IL VOR , ON, CA) observed 0923 UTC 25 June 2019
Temperature: 15.0°C (59°F)
Dewpoint: 15.0°C (59°F) [RH = 100%]
Pressure (altimeter): 29.67 inches Hg (1004.8 mb)
[Sea-level pressure: 1004.9 mb]
Winds: calm
Visibility: 6 miles (10 km)
Ceiling: at least 12,000 feet AGL
Clouds: sky clear below 12,000 feet AGL
Weather: BR  (mist)

METAR text: CYTZ 250900Z AUTO 22003KT 5SM BR FEW095 15/15 A2966 RMK SLP044 DENSITY ALT 500FT
Conditions at: CYTZ (TORONTO IL VOR , ON, CA) observed 0900 UTC 25 June 2019
Temperature: 15.0°C (59°F)
Dewpoint: 15.0°C (59°F) [RH = 100%]
Pressure (altimeter): 29.66 inches Hg (1004.5 mb)
[Sea-level pressure: 1004.4 mb]
Winds: from the SW (220 degrees) at 3 MPH (3 knots; 1.5 m/s)
Visibility: 5 miles ( 8 km)
Ceiling: at least 12,000 feet AGL
Clouds: few clouds at 9500 feet AGL
Weather: BR  (mist)

METAR text: CYTZ 250814Z AUTO 24004KT 3SM BR SCT005 BKN095 15/15 A2965 RMK SLP040 DENSITY ALT 500FT
Conditions at: CYTZ (TORONTO IL VOR , ON, CA) observed 0814 UTC 25 June 2019
Temperature: 15.0°C (59°F)
Dewpoint: 15.0°C (59°F) [RH = 100%]
Pressure (altimeter): 29.65 inches Hg (1004.1 mb)
[Sea-level pressure: 1004.0 mb]
Winds: from the WSW (240 degrees) at 5 MPH (4 knots; 2.1 m/s)
Visibility: 3 miles ( 5 km)
Ceiling: 9500 feet AGL
Clouds: scattered clouds at 500 feet AGL
broken clouds at 9500 feet AGL
Weather: BR  (mist)

METAR text: CYTZ 250808Z AUTO 23004KT 2 1/2SM BR SCT005 BKN095 15/15 A2965 RMK SLP040 DENSITY ALT 500FT
Conditions at: CYTZ (TORONTO IL VOR , ON, CA) observed 0808 UTC 25 June 2019
Temperature: 15.0°C (59°F)
Dewpoint: 15.0°C (59°F) [RH = 100%]
Pressure (altimeter): 29.65 inches Hg (1004.1 mb)
[Sea-level pressure: 1004.0 mb]
Winds: from the SW (230 degrees) at 5 MPH (4 knots; 2.1 m/s)
Visibility: 2.50 miles (4.02 km)
Ceiling: 9500 feet AGL
Clouds: scattered clouds at 500 feet AGL
broken clouds at 9500 feet AGL
Weather: BR  (mist)

METAR text: CYTZ 250800Z AUTO 23004KT 2 1/2SM BR BKN005 OVC095 15/15 A2964 RMK SLP039 DENSITY ALT 500FT
Conditions at: CYTZ (TORONTO IL VOR , ON, CA) observed 0800 UTC 25 June 2019
Temperature: 15.0°C (59°F)
Dewpoint: 15.0°C (59°F) [RH = 100%]
Pressure (altimeter): 29.64 inches Hg (1003.8 mb)
[Sea-level pressure: 1003.9 mb]
Winds: from the SW (230 degrees) at 5 MPH (4 knots; 2.1 m/s)
Visibility: 2.50 miles (4.02 km)
Ceiling: 500 feet AGL
Clouds: broken clouds at 500 feet AGL
overcast cloud deck at 9500 feet AGL
Weather: BR  (mist)

METAR text: CYTZ 250745Z AUTO VRB02KT 1 1/2SM BR BKN005 OVC090 15/15 A2963 RMK SLP035 DENSITY ALT 600FT
Conditions at: CYTZ (TORONTO IL VOR , ON, CA) observed 0745 UTC 25 June 2019
Temperature: 15.0°C (59°F)
Dewpoint: 15.0°C (59°F) [RH = 100%]
Pressure (altimeter): 29.63 inches Hg (1003.5 mb)
[Sea-level pressure: 1003.5 mb]
Winds: variable direction winds at 2 MPH (2 knots; 1.0 m/s)
Visibility: 1.50 miles (2.41 km)
Ceiling: 500 feet AGL
Clouds: broken clouds at 500 feet AGL
overcast cloud deck at 9000 feet AGL
Weather: BR  (mist)

METAR text: CYTZ 250741Z AUTO VRB02KT 1SM R08/3000VP6000FT BR OVC005 15/15 A2963 RMK SLP035 DENSITY ALT 600FT
Conditions at: CYTZ (TORONTO IL VOR , ON, CA) observed 0741 UTC 25 June 2019
Temperature: 15.0°C (59°F)
Dewpoint: 15.0°C (59°F) [RH = 100%]
Pressure (altimeter): 29.63 inches Hg (1003.5 mb)
[Sea-level pressure: 1003.5 mb]
Winds: variable direction winds at 2 MPH (2 knots; 1.0 m/s)
Visibility: 1.00 miles (1.61 km)
Ceiling: 500 feet AGL
Clouds: overcast cloud deck at 500 feet AGL
Weather: BR  (mist)

METAR text: CYTZ 250727Z AUTO 26002KT 3/4SM R08/2600FT/N BR VV005 15/15 A2964 RMK SLP037 DENSITY ALT 600FT
Conditions at: CYTZ (TORONTO IL VOR , ON, CA) observed 0727 UTC 25 June 2019
Temperature: 15.0°C (59°F)
Dewpoint: 15.0°C (59°F) [RH = 100%]
Pressure (altimeter): 29.64 inches Hg (1003.8 mb)
[Sea-level pressure: 1003.7 mb]
Winds: from the W (260 degrees) at 2 MPH (2 knots; 1.0 m/s)
Visibility: 0.75 miles (1.21 km)
Ceiling: indefinite ceiling with vertical visibility of 500 feet AGL
Clouds: obscured sky
Weather: BR  (mist)

METAR text: CYTZ 250723Z AUTO 25003KT 1 1/4SM BR OVC005 15/15 A2964 RMK SLP037 DENSITY ALT 600FT
Conditions at: CYTZ (TORONTO IL VOR , ON, CA) observed 0723 UTC 25 June 2019
Temperature: 15.0°C (59°F)
Dewpoint: 15.0°C (59°F) [RH = 100%]
Pressure (altimeter): 29.64 inches Hg (1003.8 mb)
[Sea-level pressure: 1003.7 mb]
Winds: from the WSW (250 degrees) at 3 MPH (3 knots; 1.5 m/s)
Visibility: 1.25 miles (2.01 km)
Ceiling: 500 feet AGL
Clouds: overcast cloud deck at 500 feet AGL
Weather: BR  (mist)

METAR text: CYTZ 250706Z AUTO 25004KT 1 1/2SM BR OVC005 15/15 A2964 RMK SLP038 DENSITY ALT 600FT
Conditions at: CYTZ (TORONTO IL VOR , ON, CA) observed 0706 UTC 25 June 2019
Temperature: 15.0°C (59°F)
Dewpoint: 15.0°C (59°F) [RH = 100%]
Pressure (altimeter): 29.64 inches Hg (1003.8 mb)
[Sea-level pressure: 1003.8 mb]
Winds: from the WSW (250 degrees) at 5 MPH (4 knots; 2.1 m/s)
Visibility: 1.50 miles (2.41 km)
Ceiling: 500 feet AGL
Clouds: overcast cloud deck at 500 feet AGL
Weather: BR  (mist)

METAR text: CYTZ 250700Z AUTO 24003KT 1 1/4SM BR OVC005 15/15 A2964 RMK SLP038 DENSITY ALT 600FT
Conditions at: CYTZ (TORONTO IL VOR , ON, CA) observed 0700 UTC 25 June 2019
Temperature: 15.0°C (59°F)
Dewpoint: 15.0°C (59°F) [RH = 100%]
Pressure (altimeter): 29.64 inches Hg (1003.8 mb)
[Sea-level pressure: 1003.8 mb]
Winds: from the WSW (240 degrees) at 3 MPH (3 knots; 1.5 m/s)
Visibility: 1.25 miles (2.01 km)
Ceiling: 500 feet AGL
Clouds: overcast cloud deck at 500 feet AGL
Weather: BR  (mist)

METAR text: CYTZ 250649Z AUTO 23004KT 1 1/4SM -RA BR OVC005 16/15 A2964 RMK SLP038 DENSITY ALT 600FT
Conditions at: CYTZ (TORONTO IL VOR , ON, CA) observed 0649 UTC 25 June 2019
Temperature: 16.0°C (61°F)
Dewpoint: 15.0°C (59°F) [RH = 94%]
Pressure (altimeter): 29.64 inches Hg (1003.8 mb)
[Sea-level pressure: 1003.8 mb]
Winds: from the SW (230 degrees) at 5 MPH (4 knots; 2.1 m/s)
Visibility: 1.25 miles (2.01 km)
Ceiling: 500 feet AGL
Clouds: overcast cloud deck at 500 feet AGL
Weather: -RA BR  (light rain, mist)

METAR text: CYTZ 250648Z AUTO 23004KT 1 1/2SM -RA BR OVC005 16/16 A2964 RMK SLP038 DENSITY ALT 700FT
Conditions at: CYTZ (TORONTO IL VOR , ON, CA) observed 0648 UTC 25 June 2019
Temperature: 16.0°C (61°F)
Dewpoint: 16.0°C (61°F) [RH = 100%]
Pressure (altimeter): 29.64 inches Hg (1003.8 mb)
[Sea-level pressure: 1003.8 mb]
Winds: from the SW (230 degrees) at 5 MPH (4 knots; 2.1 m/s)
Visibility: 1.50 miles (2.41 km)
Ceiling: 500 feet AGL
Clouds: overcast cloud deck at 500 feet AGL
Weather: -RA BR  (light rain, mist)

METAR text: CYTZ 250643Z AUTO 24003KT 2 1/2SM BR OVC007 16/16 A2964 RMK SLP037 DENSITY ALT 700FT
Conditions at: CYTZ (TORONTO IL VOR , ON, CA) observed 0643 UTC 25 June 2019
Temperature: 16.0°C (61°F)
Dewpoint: 16.0°C (61°F) [RH = 100%]
Pressure (altimeter): 29.64 inches Hg (1003.8 mb)
[Sea-level pressure: 1003.7 mb]
Winds: from the WSW (240 degrees) at 3 MPH (3 knots; 1.5 m/s)
Visibility: 2.50 miles (4.02 km)
Ceiling: 700 feet AGL
Clouds: overcast cloud deck at 700 feet AGL
Weather: BR  (mist)

METAR text: CYTZ 250631Z AUTO VRB02KT 3SM BR OVC007 17/16 A2963 RMK SLP034 DENSITY ALT 800FT
Conditions at: CYTZ (TORONTO IL VOR , ON, CA) observed 0631 UTC 25 June 2019
Temperature: 17.0°C (63°F)
Dewpoint: 16.0°C (61°F) [RH = 94%]
Pressure (altimeter): 29.63 inches Hg (1003.5 mb)
[Sea-level pressure: 1003.4 mb]
Winds: variable direction winds at 2 MPH (2 knots; 1.0 m/s)
Visibility: 3 miles ( 5 km)
Ceiling: 700 feet AGL
Clouds: overcast cloud deck at 700 feet AGL
Weather: BR  (mist)

METAR text: CYTZ 250622Z AUTO 00000KT 2 1/4SM BR OVC007 17/16 A2963 RMK SLP035 DENSITY ALT 800FT
Conditions at: CYTZ (TORONTO IL VOR , ON, CA) observed 0622 UTC 25 June 2019
Temperature: 17.0°C (63°F)
Dewpoint: 16.0°C (61°F) [RH = 94%]
Pressure (altimeter): 29.63 inches Hg (1003.5 mb)
[Sea-level pressure: 1003.5 mb]
Winds: calm
Visibility: 2.25 miles (3.62 km)
Ceiling: 700 feet AGL
Clouds: overcast cloud deck at 700 feet AGL
Weather: BR  (mist)

METAR text: CYTZ 250600Z AUTO 25002KT 2 1/4SM -RA BR OVC005 17/17 A2964 RMK PCPN 11.1MM PAST HR SLP037 DENSITY ALT 800FT
Conditions at: CYTZ (TORONTO IL VOR , ON, CA) observed 0600 UTC 25 June 2019
Temperature: 17.0°C (63°F)
Dewpoint: 17.0°C (63°F) [RH = 100%]
Pressure (altimeter): 29.64 inches Hg (1003.8 mb)
[Sea-level pressure: 1003.7 mb]
Winds: from the WSW (250 degrees) at 2 MPH (2 knots; 1.0 m/s)
Visibility: 2.25 miles (3.62 km)
Ceiling: 500 feet AGL
Clouds: overcast cloud deck at 500 feet AGL
Weather: -RA BR  (light rain, mist)

METAR text: CYTZ 250545Z AUTO 00000KT 1 1/2SM -RA BR BKN005 BKN018 OVC022 17/16 A2963 RMK SLP036 DENSITY ALT 800FT
Conditions at: CYTZ (TORONTO IL VOR , ON, CA) observed 0545 UTC 25 June 2019
Temperature: 17.0°C (63°F)
Dewpoint: 16.0°C (61°F) [RH = 94%]
Pressure (altimeter): 29.63 inches Hg (1003.5 mb)
[Sea-level pressure: 1003.6 mb]
Winds: calm
Visibility: 1.50 miles (2.41 km)
Ceiling: 500 feet AGL
Clouds: broken clouds at 500 feet AGL
broken clouds at 1800 feet AGL
overcast cloud deck at 2200 feet AGL
Weather: -RA BR  (light rain, mist)

METAR text: CYTZ 250539Z AUTO VRB02KT 1 1/4SM RA BR BKN005 BKN020 OVC029 17/16 A2964 RMK SLP037 DENSITY ALT 800FT
Conditions at: CYTZ (TORONTO IL VOR , ON, CA) observed 0539 UTC 25 June 2019
Temperature: 17.0°C (63°F)
Dewpoint: 16.0°C (61°F) [RH = 94%]
Pressure (altimeter): 29.64 inches Hg (1003.8 mb)
[Sea-level pressure: 1003.7 mb]
Winds: variable direction winds at 2 MPH (2 knots; 1.0 m/s)
Visibility: 1.25 miles (2.01 km)
Ceiling: 500 feet AGL
Clouds: broken clouds at 500 feet AGL
broken clouds at 2000 feet AGL
overcast cloud deck at 2900 feet AGL
Weather: RA BR  (moderate rain, mist)

METAR text: CYTZ 250538Z AUTO VRB02KT 1 1/4SM RA BR SCT005 BKN020 OVC029 17/16 A2964 RMK SLP037 DENSITY ALT 800FT
Conditions at: CYTZ (TORONTO IL VOR , ON, CA) observed 0538 UTC 25 June 2019
Temperature: 17.0°C (63°F)
Dewpoint: 16.0°C (61°F) [RH = 94%]
Pressure (altimeter): 29.64 inches Hg (1003.8 mb)
[Sea-level pressure: 1003.7 mb]
Winds: variable direction winds at 2 MPH (2 knots; 1.0 m/s)
Visibility: 1.25 miles (2.01 km)
Ceiling: 2000 feet AGL
Clouds: scattered clouds at 500 feet AGL
broken clouds at 2000 feet AGL
overcast cloud deck at 2900 feet AGL
Weather: RA BR  (moderate rain, mist)

METAR text: CYTZ 250530Z AUTO VRB02KT 1 3/4SM +RA BR SCT007 SCT011 BKN021 OVC033 17/16 A2964 RMK SLP037 DENSITY ALT 800FT
Conditions at: CYTZ (TORONTO IL VOR , ON, CA) observed 0530 UTC 25 June 2019
Temperature: 17.0°C (63°F)
Dewpoint: 16.0°C (61°F) [RH = 94%]
Pressure (altimeter): 29.64 inches Hg (1003.8 mb)
[Sea-level pressure: 1003.7 mb]
Winds: variable direction winds at 2 MPH (2 knots; 1.0 m/s)
Visibility: 1.75 miles (2.82 km)
Ceiling: 2100 feet AGL
Clouds: scattered clouds at 700 feet AGL
scattered clouds at 1100 feet AGL
broken clouds at 2100 feet AGL
overcast cloud deck at 3300 feet AGL
Weather: +RA BR  (heavy rain, mist)

METAR text: CYTZ 250527Z AUTO 00000KT 1 1/2SM RA BR FEW007 BKN021 BKN033 OVC042 16/16 A2964 RMK SLP037 DENSITY ALT 700FT
Conditions at: CYTZ (TORONTO IL VOR , ON, CA) observed 0527 UTC 25 June 2019
Temperature: 16.0°C (61°F)
Dewpoint: 16.0°C (61°F) [RH = 100%]
Pressure (altimeter): 29.64 inches Hg (1003.8 mb)
[Sea-level pressure: 1003.7 mb]
Winds: calm
Visibility: 1.50 miles (2.41 km)
Ceiling: 2100 feet AGL
Clouds: few clouds at 700 feet AGL
broken clouds at 2100 feet AGL
broken clouds at 3300 feet AGL
overcast cloud deck at 4200 feet AGL
Weather: RA BR  (moderate rain, mist)

METAR text: CYTZ 250522Z AUTO 00000KT 1SM R08/P6000FT/U RA BR FEW009 BKN021 BKN033 OVC070 16/16 A2963 RMK SLP035 DENSITY ALT 700FT
Conditions at: CYTZ (TORONTO IL VOR , ON, CA) observed 0522 UTC 25 June 2019
Temperature: 16.0°C (61°F)
Dewpoint: 16.0°C (61°F) [RH = 100%]
Pressure (altimeter): 29.63 inches Hg (1003.5 mb)
[Sea-level pressure: 1003.5 mb]
Winds: calm
Visibility: 1.00 miles (1.61 km)
Ceiling: 2100 feet AGL
Clouds: few clouds at 900 feet AGL
broken clouds at 2100 feet AGL
broken clouds at 3300 feet AGL
overcast cloud deck at 7000 feet AGL
Weather: RA BR  (moderate rain, mist)

METAR text: CYTZ 250518Z AUTO 00000KT 1 1/4SM +RA BR FEW009 SCT023 BKN042 OVC070 16/16 A2963 RMK SLP036 DENSITY ALT 700FT
Conditions at: CYTZ (TORONTO IL VOR , ON, CA) observed 0518 UTC 25 June 2019
Temperature: 16.0°C (61°F)
Dewpoint: 16.0°C (61°F) [RH = 100%]
Pressure (altimeter): 29.63 inches Hg (1003.5 mb)
[Sea-level pressure: 1003.6 mb]
Winds: calm
Visibility: 1.25 miles (2.01 km)
Ceiling: 4200 feet AGL
Clouds: few clouds at 900 feet AGL
scattered clouds at 2300 feet AGL
broken clouds at 4200 feet AGL
overcast cloud deck at 7000 feet AGL
Weather: +RA BR  (heavy rain, mist)

METAR text: CYTZ 250512Z AUTO 22004KT 160V300 2 1/4SM +RA BR FEW011 SCT025 BKN043 OVC070 16/15 A2964 RMK VIS VRB 1 1/2-3 PRESRR SLP037 DENSITY ALT 700FT
Conditions at: CYTZ (TORONTO IL VOR , ON, CA) observed 0512 UTC 25 June 2019
Temperature: 16.0°C (61°F)
Dewpoint: 15.0°C (59°F) [RH = 94%]
Pressure (altimeter): 29.64 inches Hg (1003.8 mb)
[Sea-level pressure: 1003.7 mb]
Winds: from the SW (220 degrees) at 5 MPH (4 knots; 2.1 m/s)
Visibility: 2.25 miles (3.62 km)
Ceiling: 4300 feet AGL
Clouds: few clouds at 1100 feet AGL
scattered clouds at 2500 feet AGL
broken clouds at 4300 feet AGL
overcast cloud deck at 7000 feet AGL
Weather: +RA BR  (heavy rain, mist)

METAR text: CYTZ 250507Z AUTO VRB02KT 4SM +RA BR FEW011 SCT025 BKN039 OVC070 17/16 A2963 RMK SLP036 DENSITY ALT 800FT
Conditions at: CYTZ (TORONTO IL VOR , ON, CA) observed 0507 UTC 25 June 2019
Temperature: 17.0°C (63°F)
Dewpoint: 16.0°C (61°F) [RH = 94%]
Pressure (altimeter): 29.63 inches Hg (1003.5 mb)
[Sea-level pressure: 1003.6 mb]
Winds: variable direction winds at 2 MPH (2 knots; 1.0 m/s)
Visibility: 4 miles ( 6 km)
Ceiling: 3900 feet AGL
Clouds: few clouds at 1100 feet AGL
scattered clouds at 2500 feet AGL
broken clouds at 3900 feet AGL
overcast cloud deck at 7000 feet AGL
Weather: +RA BR  (heavy rain, mist)

METAR text: CYTZ 250500Z AUTO 07006KT 4SM RA BR FEW029 BKN039 BKN048 OVC065 17/16 A2962 RMK SLP033 DENSITY ALT 800FT
Conditions at: CYTZ (TORONTO IL VOR , ON, CA) observed 0500 UTC 25 June 2019
Temperature: 17.0°C (63°F)
Dewpoint: 16.0°C (61°F) [RH = 94%]
Pressure (altimeter): 29.62 inches Hg (1003.1 mb)
[Sea-level pressure: 1003.3 mb]
Winds: from the ENE (70 degrees) at 7 MPH (6 knots; 3.1 m/s)
Visibility: 4 miles ( 6 km)
Ceiling: 3900 feet AGL
Clouds: few clouds at 2900 feet AGL
broken clouds at 3900 feet AGL
broken clouds at 4800 feet AGL
overcast cloud deck at 6500 feet AGL
Weather: RA BR  (moderate rain, mist)

METAR text: CYTZ 250442Z AUTO 10004KT 5SM -RA BR SCT029 OVC041 17/16 A2964 RMK SLP037 DENSITY ALT 800FT
Conditions at: CYTZ (TORONTO IL VOR , ON, CA) observed 0442 UTC 25 June 2019
Temperature: 17.0°C (63°F)
Dewpoint: 16.0°C (61°F) [RH = 94%]
Pressure (altimeter): 29.64 inches Hg (1003.8 mb)
[Sea-level pressure: 1003.7 mb]
Winds: from the E (100 degrees) at 5 MPH (4 knots; 2.1 m/s)
Visibility: 5 miles ( 8 km)
Ceiling: 4100 feet AGL
Clouds: scattered clouds at 2900 feet AGL
overcast cloud deck at 4100 feet AGL
Weather: -RA BR  (light rain, mist)

METAR text: CYTZ 250424Z AUTO 09005KT 6SM -RA BR FEW027 SCT038 BKN045 OVC055 17/15 A2964 RMK SLP039 DENSITY ALT 800FT
Conditions at: CYTZ (TORONTO IL VOR , ON, CA) observed 0424 UTC 25 June 2019
Temperature: 17.0°C (63°F)
Dewpoint: 15.0°C (59°F) [RH = 88%]
Pressure (altimeter): 29.64 inches Hg (1003.8 mb)
[Sea-level pressure: 1003.9 mb]
Winds: from the E (90 degrees) at 6 MPH (5 knots; 2.6 m/s)
Visibility: 6 miles (10 km)
Ceiling: 4500 feet AGL
Clouds: few clouds at 2700 feet AGL
scattered clouds at 3800 feet AGL
broken clouds at 4500 feet AGL
overcast cloud deck at 5500 feet AGL
Weather: -RA BR  (light rain, mist)

METAR text: CYTZ 250420Z AUTO 09004KT 050V120 5SM -RA BR FEW027 SCT034 BKN045 OVC055 17/15 A2965 RMK SLP040 DENSITY ALT 800FT
Conditions at: CYTZ (TORONTO IL VOR , ON, CA) observed 0420 UTC 25 June 2019
Temperature: 17.0°C (63°F)
Dewpoint: 15.0°C (59°F) [RH = 88%]
Pressure (altimeter): 29.65 inches Hg (1004.1 mb)
[Sea-level pressure: 1004.0 mb]
Winds: from the E (90 degrees) at 5 MPH (4 knots; 2.1 m/s)
Visibility: 5 miles ( 8 km)
Ceiling: 4500 feet AGL
Clouds: few clouds at 2700 feet AGL
scattered clouds at 3400 feet AGL
broken clouds at 4500 feet AGL
overcast cloud deck at 5500 feet AGL
Weather: -RA BR  (light rain, mist)

METAR text: CYTZ 250405Z AUTO 07008KT 9SM -RA SCT043 BKN055 BKN071 OVC082 17/15 A2965 RMK SLP040 DENSITY ALT 800FT
Conditions at: CYTZ (TORONTO IL VOR , ON, CA) observed 0405 UTC 25 June 2019
Temperature: 17.0°C (63°F)
Dewpoint: 15.0°C (59°F) [RH = 88%]
Pressure (altimeter): 29.65 inches Hg (1004.1 mb)
[Sea-level pressure: 1004.0 mb]
Winds: from the ENE (70 degrees) at 9 MPH (8 knots; 4.1 m/s)
Visibility: 9 miles (14 km)
Ceiling: 5500 feet AGL
Clouds: scattered clouds at 4300 feet AGL
broken clouds at 5500 feet AGL
broken clouds at 7100 feet AGL
overcast cloud deck at 8200 feet AGL
Weather: -RA  (light rain)

METAR text: CYTZ 250400Z AUTO 07009KT 9SM BKN055 OVC074 17/15 A2965 RMK SLP040 DENSITY ALT 800FT
Conditions at: CYTZ (TORONTO IL VOR , ON, CA) observed 0400 UTC 25 June 2019
Temperature: 17.0°C (63°F)
Dewpoint: 15.0°C (59°F) [RH = 88%]
Pressure (altimeter): 29.65 inches Hg (1004.1 mb)
[Sea-level pressure: 1004.0 mb]
Winds: from the ENE (70 degrees) at 10 MPH (9 knots; 4.6 m/s)
Visibility: 9 miles (14 km)
Ceiling: 5500 feet AGL
Clouds: broken clouds at 5500 feet AGL
overcast cloud deck at 7400 feet AGL
Weather: no significant weather observed at this time

METAR text: CYTZ 250337Z AUTO 07012KT 9SM SCT041 BKN060 BKN079 OVC100 17/15 A2965 RMK PRESFR SLP040 DENSITY ALT 800FT
Conditions at: CYTZ (TORONTO IL VOR , ON, CA) observed 0337 UTC 25 June 2019
Temperature: 17.0°C (63°F)
Dewpoint: 15.0°C (59°F) [RH = 88%]
Pressure (altimeter): 29.65 inches Hg (1004.1 mb)
[Sea-level pressure: 1004.0 mb]
Winds: from the ENE (70 degrees) at 14 MPH (12 knots; 6.2 m/s)
Visibility: 9 miles (14 km)
Ceiling: 6000 feet AGL
Clouds: scattered clouds at 4100 feet AGL
broken clouds at 6000 feet AGL
broken clouds at 7900 feet AGL
overcast cloud deck at 10000 feet AGL
Weather: no significant weather observed at this time

METAR text: CYTZ 250300Z AUTO 09009KT 9SM -RA SCT050 BKN065 OVC082 19/15 A2965 RMK SLP040 DENSITY ALT 1000FT
Conditions at: CYTZ (TORONTO IL VOR , ON, CA) observed 0300 UTC 25 June 2019
Temperature: 19.0°C (66°F)
Dewpoint: 15.0°C (59°F) [RH = 78%]
Pressure (altimeter): 29.65 inches Hg (1004.1 mb)
[Sea-level pressure: 1004.0 mb]
Winds: from the E (90 degrees) at 10 MPH (9 knots; 4.6 m/s)
Visibility: 9 miles (14 km)
Ceiling: 6500 feet AGL
Clouds: scattered clouds at 5000 feet AGL
broken clouds at 6500 feet AGL
overcast cloud deck at 8200 feet AGL
Weather: -RA  (light rain)

METAR text: CYTZ 250247Z AUTO 08011KT 9SM -RA SCT060 BKN076 BKN095 OVC150 19/16 A2964 RMK SLP039 DENSITY ALT 1000FT
Conditions at: CYTZ (TORONTO IL VOR , ON, CA) observed 0247 UTC 25 June 2019
Temperature: 19.0°C (66°F)
Dewpoint: 16.0°C (61°F) [RH = 83%]
Pressure (altimeter): 29.64 inches Hg (1003.8 mb)
[Sea-level pressure: 1003.9 mb]
Winds: from the E (80 degrees) at 13 MPH (11 knots; 5.7 m/s)
Visibility: 9 miles (14 km)
Ceiling: 7600 feet AGL
Clouds: scattered clouds at 6000 feet AGL
broken clouds at 7600 feet AGL
broken clouds at 9500 feet AGL
overcast cloud deck at 15000 feet AGL
Weather: -RA  (light rain)

METAR text: CYTZ 250241Z AUTO 08011KT 9SM FEW065 BKN076 BKN095 OVC150 19/15 A2964 RMK SLP038 DENSITY ALT 1000FT
Conditions at: CYTZ (TORONTO IL VOR , ON, CA) observed 0241 UTC 25 June 2019
Temperature: 19.0°C (66°F)
Dewpoint: 15.0°C (59°F) [RH = 78%]
Pressure (altimeter): 29.64 inches Hg (1003.8 mb)
[Sea-level pressure: 1003.8 mb]
Winds: from the E (80 degrees) at 13 MPH (11 knots; 5.7 m/s)
Visibility: 9 miles (14 km)
Ceiling: 7600 feet AGL
Clouds: few clouds at 6500 feet AGL
broken clouds at 7600 feet AGL
broken clouds at 9500 feet AGL
overcast cloud deck at 15000 feet AGL
Weather: no significant weather observed at this time

METAR text: CYTZ 250200Z AUTO 07013KT 9SM -RA BKN085 OVC140 19/15 A2965 RMK SLP043 DENSITY ALT 1000FT
Conditions at: CYTZ (TORONTO IL VOR , ON, CA) observed 0200 UTC 25 June 2019
Temperature: 19.0°C (66°F)
Dewpoint: 15.0°C (59°F) [RH = 78%]
Pressure (altimeter): 29.65 inches Hg (1004.1 mb)
[Sea-level pressure: 1004.3 mb]
Winds: from the ENE (70 degrees) at 15 MPH (13 knots; 6.7 m/s)
Visibility: 9 miles (14 km)
Ceiling: 8500 feet AGL
Clouds: broken clouds at 8500 feet AGL
overcast cloud deck at 14000 feet AGL
Weather: -RA  (light rain)

METAR text: CYTZ 250159Z AUTO 07013KT 9SM -RA BKN080 OVC140 19/15 A2965 RMK SLP043 DENSITY ALT 1000FT
Conditions at: CYTZ (TORONTO IL VOR , ON, CA) observed 0159 UTC 25 June 2019
Temperature: 19.0°C (66°F)
Dewpoint: 15.0°C (59°F) [RH = 78%]
Pressure (altimeter): 29.65 inches Hg (1004.1 mb)
[Sea-level pressure: 1004.3 mb]
Winds: from the ENE (70 degrees) at 15 MPH (13 knots; 6.7 m/s)
Visibility: 9 miles (14 km)
Ceiling: 8000 feet AGL
Clouds: broken clouds at 8000 feet AGL
overcast cloud deck at 14000 feet AGL
Weather: -RA  (light rain)

METAR text: CYTZ 250141Z AUTO 08012KT 9SM BKN140 19/15 A2965 RMK SLP043 DENSITY ALT 1000FT
Conditions at: CYTZ (TORONTO IL VOR , ON, CA) observed 0141 UTC 25 June 2019
Temperature: 19.0°C (66°F)
Dewpoint: 15.0°C (59°F) [RH = 78%]
Pressure (altimeter): 29.65 inches Hg (1004.1 mb)
[Sea-level pressure: 1004.3 mb]
Winds: from the E (80 degrees) at 14 MPH (12 knots; 6.2 m/s)
Visibility: 9 miles (14 km)
Ceiling: 14000 feet AGL
Clouds: broken clouds at 14000 feet AGL
Weather: no significant weather observed at this time

METAR text: CYTZ 250127Z AUTO 07011KT 9SM -RA SCT060 BKN140 OVC180 19/15 A2966 RMK SLP046 DENSITY ALT 1000FT
Conditions at: CYTZ (TORONTO IL VOR , ON, CA) observed 0127 UTC 25 June 2019
Temperature: 19.0°C (66°F)
Dewpoint: 15.0°C (59°F) [RH = 78%]
Pressure (altimeter): 29.66 inches Hg (1004.5 mb)
[Sea-level pressure: 1004.6 mb]
Winds: from the ENE (70 degrees) at 13 MPH (11 knots; 5.7 m/s)
Visibility: 9 miles (14 km)
Ceiling: 14000 feet AGL
Clouds: scattered clouds at 6000 feet AGL
broken clouds at 14000 feet AGL
overcast cloud deck at 18000 feet AGL
Weather: -RA  (light rain)

METAR text: CYTZ 250100Z AUTO 07014KT 9SM FEW065 SCT110 SCT140 BKN180 18/15 A2966 RMK SLP045 DENSITY ALT 1000FT
Conditions at: CYTZ (TORONTO IL VOR , ON, CA) observed 0100 UTC 25 June 2019
Temperature: 18.0°C (64°F)
Dewpoint: 15.0°C (59°F) [RH = 83%]
Pressure (altimeter): 29.66 inches Hg (1004.5 mb)
[Sea-level pressure: 1004.5 mb]
Winds: from the ENE (70 degrees) at 16 MPH (14 knots; 7.2 m/s)
Visibility: 9 miles (14 km)
Ceiling: 18000 feet AGL
Clouds: few clouds at 6500 feet AGL
scattered clouds at 11000 feet AGL
scattered clouds at 14000 feet AGL
broken clouds at 18000 feet AGL
Weather: no significant weather observed at this time

METAR text: CYTZ 250000Z AUTO 07015KT 9SM CLR 18/14 A2967 RMK SLP048 DENSITY ALT 900FT
Conditions at: CYTZ (TORONTO IL VOR , ON, CA) observed 0000 UTC 25 June 2019
Temperature: 18.0°C (64°F)
Dewpoint: 14.0°C (57°F) [RH = 77%]
Pressure (altimeter): 29.67 inches Hg (1004.8 mb)
[Sea-level pressure: 1004.8 mb]
Winds: from the ENE (70 degrees) at 17 MPH (15 knots; 7.7 m/s)
Visibility: 9 miles (14 km)
Ceiling: at least 12,000 feet AGL
Clouds: sky clear below 12,000 feet AGL
Weather: no significant weather observed at this time

METAR text: CYTZ 242300Z AUTO 07015KT 9SM CLR 19/15 A2967 RMK SLP047 DENSITY ALT 1000FT
Conditions at: CYTZ (TORONTO IL VOR , ON, CA) observed 2300 UTC 24 June 2019
Temperature: 19.0°C (66°F)
Dewpoint: 15.0°C (59°F) [RH = 78%]
Pressure (altimeter): 29.67 inches Hg (1004.8 mb)
[Sea-level pressure: 1004.7 mb]
Winds: from the ENE (70 degrees) at 17 MPH (15 knots; 7.7 m/s)
Visibility: 9 miles (14 km)
Ceiling: at least 12,000 feet AGL
Clouds: sky clear below 12,000 feet AGL
Weather: no significant weather observed at this time

METAR text: CYTZ 242200Z AUTO 07015KT 9SM CLR 18/15 A2968 RMK SLP053 DENSITY ALT 900FT
Conditions at: CYTZ (TORONTO IL VOR , ON, CA) observed 2200 UTC 24 June 2019
Temperature: 18.0°C (64°F)
Dewpoint: 15.0°C (59°F) [RH = 83%]
Pressure (altimeter): 29.68 inches Hg (1005.2 mb)
[Sea-level pressure: 1005.3 mb]
Winds: from the ENE (70 degrees) at 17 MPH (15 knots; 7.7 m/s)
Visibility: 9 miles (14 km)
Ceiling: at least 12,000 feet AGL
Clouds: sky clear below 12,000 feet AGL
Weather: no significant weather observed at this time

METAR text: CYTZ 242100Z AUTO 07014KT 9SM CLR 19/15 A2971 RMK SLP061 DENSITY ALT 1000FT
Conditions at: CYTZ (TORONTO IL VOR , ON, CA) observed 2100 UTC 24 June 2019
Temperature: 19.0°C (66°F)
Dewpoint: 15.0°C (59°F) [RH = 78%]
Pressure (altimeter): 29.71 inches Hg (1006.2 mb)
[Sea-level pressure: 1006.1 mb]
Winds: from the ENE (70 degrees) at 16 MPH (14 knots; 7.2 m/s)
Visibility: 9 miles (14 km)
Ceiling: at least 12,000 feet AGL
Clouds: sky clear below 12,000 feet AGL
Weather: no significant weather observed at this time

METAR text: CYTZ 242000Z AUTO 08012KT 9SM CLR 19/15 A2972 RMK SLP066 DENSITY ALT 1000FT
Conditions at: CYTZ (TORONTO IL VOR , ON, CA) observed 2000 UTC 24 June 2019
Temperature: 19.0°C (66°F)
Dewpoint: 15.0°C (59°F) [RH = 78%]
Pressure (altimeter): 29.72 inches Hg (1006.5 mb)
[Sea-level pressure: 1006.6 mb]
Winds: from the E (80 degrees) at 14 MPH (12 knots; 6.2 m/s)
Visibility: 9 miles (14 km)
Ceiling: at least 12,000 feet AGL
Clouds: sky clear below 12,000 feet AGL
Weather: no significant weather observed at this time

METAR text: CYTZ 241900Z AUTO 08013KT 9SM SCT040 BKN060 19/15 A2975 RMK SLP077 DENSITY ALT 900FT
Conditions at: CYTZ (TORONTO IL VOR , ON, CA) observed 1900 UTC 24 June 2019
Temperature: 19.0°C (66°F)
Dewpoint: 15.0°C (59°F) [RH = 78%]
Pressure (altimeter): 29.75 inches Hg (1007.5 mb)
[Sea-level pressure: 1007.7 mb]
Winds: from the E (80 degrees) at 15 MPH (13 knots; 6.7 m/s)
Visibility: 9 miles (14 km)
Ceiling: 6000 feet AGL
Clouds: scattered clouds at 4000 feet AGL
broken clouds at 6000 feet AGL
Weather: no significant weather observed at this time

METAR text: CYTZ 241800Z AUTO 07014KT 9SM CLR 19/15 A2976 RMK SLP079 DENSITY ALT 900FT
Conditions at: CYTZ (TORONTO IL VOR , ON, CA) observed 1800 UTC 24 June 2019
Temperature: 19.0°C (66°F)
Dewpoint: 15.0°C (59°F) [RH = 78%]
Pressure (altimeter): 29.76 inches Hg (1007.9 mb)
[Sea-level pressure: 1007.9 mb]
Winds: from the ENE (70 degrees) at 16 MPH (14 knots; 7.2 m/s)
Visibility: 9 miles (14 km)
Ceiling: at least 12,000 feet AGL
Clouds: sky clear below 12,000 feet AGL
Weather: no significant weather observed at this time

METAR text: CYTZ 241700Z AUTO 07015KT 9SM FEW100 18/14 A2977 RMK SLP083 DENSITY ALT 800FT
Conditions at: CYTZ (TORONTO IL VOR , ON, CA) observed 1700 UTC 24 June 2019
Temperature: 18.0°C (64°F)
Dewpoint: 14.0°C (57°F) [RH = 77%]
Pressure (altimeter): 29.77 inches Hg (1008.2 mb)
[Sea-level pressure: 1008.3 mb]
Winds: from the ENE (70 degrees) at 17 MPH (15 knots; 7.7 m/s)
Visibility: 9 miles (14 km)
Ceiling: at least 12,000 feet AGL
Clouds: few clouds at 10000 feet AGL
Weather: no significant weather observed at this time

METAR text: CYTZ 241601Z AUTO 07014KT 9SM FEW070 SCT090 BKN110 18/13 A2978 RMK SLP086 DENSITY ALT 700FT
Conditions at: CYTZ (TORONTO IL VOR , ON, CA) observed 1601 UTC 24 June 2019
Temperature: 18.0°C (64°F)
Dewpoint: 13.0°C (55°F) [RH = 73%]
Pressure (altimeter): 29.78 inches Hg (1008.5 mb)
[Sea-level pressure: 1008.6 mb]
Winds: from the ENE (70 degrees) at 16 MPH (14 knots; 7.2 m/s)
Visibility: 9 miles (14 km)
Ceiling: 11000 feet AGL
Clouds: few clouds at 7000 feet AGL
scattered clouds at 9000 feet AGL
broken clouds at 11000 feet AGL
Weather: no significant weather observed at this time

METAR text: CYTZ 241600Z AUTO 07014KT 9SM -RA FEW070 SCT091 BKN110 18/13 A2978 RMK SLP086 DENSITY ALT 700FT
Conditions at: CYTZ (TORONTO IL VOR , ON, CA) observed 1600 UTC 24 June 2019
Temperature: 18.0°C (64°F)
Dewpoint: 13.0°C (55°F) [RH = 73%]
Pressure (altimeter): 29.78 inches Hg (1008.5 mb)
[Sea-level pressure: 1008.6 mb]
Winds: from the ENE (70 degrees) at 16 MPH (14 knots; 7.2 m/s)
Visibility: 9 miles (14 km)
Ceiling: 11000 feet AGL
Clouds: few clouds at 7000 feet AGL
scattered clouds at 9100 feet AGL
broken clouds at 11000 feet AGL
Weather: -RA  (light rain)

METAR text: CYTZ 241544Z AUTO 07012KT 9SM -RA FEW038 OVC093 17/13 A2979 RMK SLP088 DENSITY ALT 700FT
Conditions at: CYTZ (TORONTO IL VOR , ON, CA) observed 1544 UTC 24 June 2019
Temperature: 17.0°C (63°F)
Dewpoint: 13.0°C (55°F) [RH = 77%]
Pressure (altimeter): 29.79 inches Hg (1008.9 mb)
[Sea-level pressure: 1008.8 mb]
Winds: from the ENE (70 degrees) at 14 MPH (12 knots; 6.2 m/s)
Visibility: 9 miles (14 km)
Ceiling: 9300 feet AGL
Clouds: few clouds at 3800 feet AGL
overcast cloud deck at 9300 feet AGL
Weather: -RA  (light rain)

METAR text: CYTZ 241531Z AUTO 07011KT 9SM FEW035 BKN100 BKN130 17/13 A2980 RMK SLP092 DENSITY ALT 700FT
Conditions at: CYTZ (TORONTO IL VOR , ON, CA) observed 1531 UTC 24 June 2019
Temperature: 17.0°C (63°F)
Dewpoint: 13.0°C (55°F) [RH = 77%]
Pressure (altimeter): 29.80 inches Hg (1009.2 mb)
[Sea-level pressure: 1009.2 mb]
Winds: from the ENE (70 degrees) at 13 MPH (11 knots; 5.7 m/s)
Visibility: 9 miles (14 km)
Ceiling: 10000 feet AGL
Clouds: few clouds at 3500 feet AGL
broken clouds at 10000 feet AGL
broken clouds at 13000 feet AGL
Weather: no significant weather observed at this time

METAR text: CYTZ 241521Z AUTO 07011KT 9SM -RA FEW035 SCT046 SCT075 BKN100 18/13 A2980 RMK SLP093 DENSITY ALT 700FT
Conditions at: CYTZ (TORONTO IL VOR , ON, CA) observed 1521 UTC 24 June 2019
Temperature: 18.0°C (64°F)
Dewpoint: 13.0°C (55°F) [RH = 73%]
Pressure (altimeter): 29.80 inches Hg (1009.2 mb)
[Sea-level pressure: 1009.3 mb]
Winds: from the ENE (70 degrees) at 13 MPH (11 knots; 5.7 m/s)
Visibility: 9 miles (14 km)
Ceiling: 10000 feet AGL
Clouds: few clouds at 3500 feet AGL
scattered clouds at 4600 feet AGL
scattered clouds at 7500 feet AGL
broken clouds at 10000 feet AGL
Weather: -RA  (light rain)

METAR text: CYTZ 241517Z AUTO 07011KT 9SM FEW045 SCT075 SCT100 BKN130 18/13 A2980 RMK SLP093 DENSITY ALT 700FT
Conditions at: CYTZ (TORONTO IL VOR , ON, CA) observed 1517 UTC 24 June 2019
Temperature: 18.0°C (64°F)
Dewpoint: 13.0°C (55°F) [RH = 73%]
Pressure (altimeter): 29.80 inches Hg (1009.2 mb)
[Sea-level pressure: 1009.3 mb]
Winds: from the ENE (70 degrees) at 13 MPH (11 knots; 5.7 m/s)
Visibility: 9 miles (14 km)
Ceiling: 13000 feet AGL
Clouds: few clouds at 4500 feet AGL
scattered clouds at 7500 feet AGL
scattered clouds at 10000 feet AGL
broken clouds at 13000 feet AGL
Weather: no significant weather observed at this time

METAR text: CYTZ 241500Z AUTO 07011KT 9SM -RA FEW044 SCT076 BKN110 BKN130 17/13 A2981 RMK SLP096 DENSITY ALT 700FT
Conditions at: CYTZ (TORONTO IL VOR , ON, CA) observed 1500 UTC 24 June 2019
Temperature: 17.0°C (63°F)
Dewpoint: 13.0°C (55°F) [RH = 77%]
Pressure (altimeter): 29.81 inches Hg (1009.6 mb)
[Sea-level pressure: 1009.6 mb]
Winds: from the ENE (70 degrees) at 13 MPH (11 knots; 5.7 m/s)
Visibility: 9 miles (14 km)
Ceiling: 11000 feet AGL
Clouds: few clouds at 4400 feet AGL
scattered clouds at 7600 feet AGL
broken clouds at 11000 feet AGL
broken clouds at 13000 feet AGL
Weather: -RA  (light rain)

METAR text: CYTZ 241457Z AUTO 08010KT 9SM -RA FEW060 SCT076 SCT100 BKN130 17/13 A2981 RMK SLP096 DENSITY ALT 700FT
Conditions at: CYTZ (TORONTO IL VOR , ON, CA) observed 1457 UTC 24 June 2019
Temperature: 17.0°C (63°F)
Dewpoint: 13.0°C (55°F) [RH = 77%]
Pressure (altimeter): 29.81 inches Hg (1009.6 mb)
[Sea-level pressure: 1009.6 mb]
Winds: from the E (80 degrees) at 12 MPH (10 knots; 5.1 m/s)
Visibility: 9 miles (14 km)
Ceiling: 13000 feet AGL
Clouds: few clouds at 6000 feet AGL
scattered clouds at 7600 feet AGL
scattered clouds at 10000 feet AGL
broken clouds at 13000 feet AGL
Weather: -RA  (light rain)

METAR text: CYTZ 241400Z AUTO 07012KT 9SM BKN140 BKN160 18/12 A2980 RMK SLP092 DENSITY ALT 800FT
Conditions at: CYTZ (TORONTO IL VOR , ON, CA) observed 1400 UTC 24 June 2019
Temperature: 18.0°C (64°F)
Dewpoint: 12.0°C (54°F) [RH = 68%]
Pressure (altimeter): 29.80 inches Hg (1009.2 mb)
[Sea-level pressure: 1009.2 mb]
Winds: from the ENE (70 degrees) at 14 MPH (12 knots; 6.2 m/s)
Visibility: 9 miles (14 km)
Ceiling: 14000 feet AGL
Clouds: broken clouds at 14000 feet AGL
broken clouds at 16000 feet AGL
Weather: no significant weather observed at this time

METAR text: CYTZ 241300Z AUTO 07011KT 9SM FEW150 17/13 A2981 RMK SLP097 DENSITY ALT 600FT
Conditions at: CYTZ (TORONTO IL VOR , ON, CA) observed 1300 UTC 24 June 2019
Temperature: 17.0°C (63°F)
Dewpoint: 13.0°C (55°F) [RH = 77%]
Pressure (altimeter): 29.81 inches Hg (1009.6 mb)
[Sea-level pressure: 1009.7 mb]
Winds: from the ENE (70 degrees) at 13 MPH (11 knots; 5.7 m/s)
Visibility: 9 miles (14 km)
Ceiling: at least 12,000 feet AGL
Clouds: few clouds at 15000 feet AGL
Weather: no significant weather observed at this time

METAR text: CYTZ 241200Z AUTO 08011KT 9SM SCT095 SCT110 17/13 A2982 RMK SLP101 DENSITY ALT 600FT
Conditions at: CYTZ (TORONTO IL VOR , ON, CA) observed 1200 UTC 24 June 2019
Temperature: 17.0°C (63°F)
Dewpoint: 13.0°C (55°F) [RH = 77%]
Pressure (altimeter): 29.82 inches Hg (1009.9 mb)
[Sea-level pressure: 1010.1 mb]
Winds: from the E (80 degrees) at 13 MPH (11 knots; 5.7 m/s)
Visibility: 9 miles (14 km)
Ceiling: at least 12,000 feet AGL
Clouds: scattered clouds at 9500 feet AGL
scattered clouds at 11000 feet AGL
Weather: no significant weather observed at this time

METAR text: CYTZ 241100Z AUTO 07009KT 9SM BKN110 BKN180 16/13 A2984 RMK SLP105 DENSITY ALT 500FT
Conditions at: CYTZ (TORONTO IL VOR , ON, CA) observed 1100 UTC 24 June 2019
Temperature: 16.0°C (61°F)
Dewpoint: 13.0°C (55°F) [RH = 82%]
Pressure (altimeter): 29.84 inches Hg (1010.6 mb)
[Sea-level pressure: 1010.5 mb]
Winds: from the ENE (70 degrees) at 10 MPH (9 knots; 4.6 m/s)
Visibility: 9 miles (14 km)
Ceiling: 11000 feet AGL
Clouds: broken clouds at 11000 feet AGL
broken clouds at 18000 feet AGL
Weather: no significant weather observed at this time

METAR text: CYTZ 241000Z AUTO 08006KT 9SM FEW210 SCT240 15/13 A2985 RMK SLP109 DENSITY ALT 400FT
Conditions at: CYTZ (TORONTO IL VOR , ON, CA) observed 1000 UTC 24 June 2019
Temperature: 15.0°C (59°F)
Dewpoint: 13.0°C (55°F) [RH = 88%]
Pressure (altimeter): 29.85 inches Hg (1010.9 mb)
[Sea-level pressure: 1010.9 mb]
Winds: from the E (80 degrees) at 7 MPH (6 knots; 3.1 m/s)
Visibility: 9 miles (14 km)
Ceiling: at least 12,000 feet AGL
Clouds: few clouds at 21000 feet AGL
scattered clouds at 24000 feet AGL
Weather: no significant weather observed at this time

METAR text: CYTZ 240900Z AUTO 09002KT 9SM SCT230 SCT250 15/13 A2984 RMK SLP107 DENSITY ALT 300FT
Conditions at: CYTZ (TORONTO IL VOR , ON, CA) observed 0900 UTC 24 June 2019
Temperature: 15.0°C (59°F)
Dewpoint: 13.0°C (55°F) [RH = 88%]
Pressure (altimeter): 29.84 inches Hg (1010.6 mb)
[Sea-level pressure: 1010.7 mb]
Winds: from the E (90 degrees) at 2 MPH (2 knots; 1.0 m/s)
Visibility: 9 miles (14 km)
Ceiling: at least 12,000 feet AGL
Clouds: scattered clouds at 23000 feet AGL
scattered clouds at 25000 feet AGL
Weather: no significant weather observed at this time

METAR text: CYTZ 240800Z AUTO 00000KT 9SM CLR 16/13 A2985 RMK SLP108 DENSITY ALT 400FT
Conditions at: CYTZ (TORONTO IL VOR , ON, CA) observed 0800 UTC 24 June 2019
Temperature: 16.0°C (61°F)
Dewpoint: 13.0°C (55°F) [RH = 82%]
Pressure (altimeter): 29.85 inches Hg (1010.9 mb)
[Sea-level pressure: 1010.8 mb]
Winds: calm
Visibility: 9 miles (14 km)
Ceiling: at least 12,000 feet AGL
Clouds: sky clear below 12,000 feet AGL
Weather: no significant weather observed at this time

METAR text: CYTZ 240700Z AUTO 04003KT 9SM CLR 16/13 A2985 RMK SLP111 DENSITY ALT 400FT
Conditions at: CYTZ (TORONTO IL VOR , ON, CA) observed 0700 UTC 24 June 2019
Temperature: 16.0°C (61°F)
Dewpoint: 13.0°C (55°F) [RH = 82%]
Pressure (altimeter): 29.85 inches Hg (1010.9 mb)
[Sea-level pressure: 1011.1 mb]
Winds: from the NE (40 degrees) at 3 MPH (3 knots; 1.5 m/s)
Visibility: 9 miles (14 km)
Ceiling: at least 12,000 feet AGL
Clouds: sky clear below 12,000 feet AGL
Weather: no significant weather observed at this time

METAR text: CYTZ 240600Z AUTO 09002KT 9SM CLR 16/13 A2986 RMK SLP112 DENSITY ALT 400FT
Conditions at: CYTZ (TORONTO IL VOR , ON, CA) observed 0600 UTC 24 June 2019
Temperature: 16.0°C (61°F)
Dewpoint: 13.0°C (55°F) [RH = 82%]
Pressure (altimeter): 29.86 inches Hg (1011.3 mb)
[Sea-level pressure: 1011.2 mb]
Winds: from the E (90 degrees) at 2 MPH (2 knots; 1.0 m/s)
Visibility: 9 miles (14 km)
Ceiling: at least 12,000 feet AGL
Clouds: sky clear below 12,000 feet AGL
Weather: no significant weather observed at this time

METAR text: CYTZ 240500Z AUTO 08003KT 9SM CLR 16/14 A2987 RMK SLP116 DENSITY ALT 400FT
Conditions at: CYTZ (TORONTO IL VOR , ON, CA) observed 0500 UTC 24 June 2019
Temperature: 16.0°C (61°F)
Dewpoint: 14.0°C (57°F) [RH = 88%]
Pressure (altimeter): 29.87 inches Hg (1011.6 mb)
[Sea-level pressure: 1011.6 mb]
Winds: from the E (80 degrees) at 3 MPH (3 knots; 1.5 m/s)
Visibility: 9 miles (14 km)
Ceiling: at least 12,000 feet AGL
Clouds: sky clear below 12,000 feet AGL
Weather: no significant weather observed at this time

METAR text: CYTZ 240400Z AUTO VRB02KT 9SM CLR 19/12 A2988 RMK SLP120 DENSITY ALT 700FT
Conditions at: CYTZ (TORONTO IL VOR , ON, CA) observed 0400 UTC 24 June 2019
Temperature: 19.0°C (66°F)
Dewpoint: 12.0°C (54°F) [RH = 64%]
Pressure (altimeter): 29.88 inches Hg (1011.9 mb)
[Sea-level pressure: 1012.0 mb]
Winds: variable direction winds at 2 MPH (2 knots; 1.0 m/s)
Visibility: 9 miles (14 km)
Ceiling: at least 12,000 feet AGL
Clouds: sky clear below 12,000 feet AGL
Weather: no significant weather observed at this time

METAR text: CYTZ 240300Z AUTO 00000KT 9SM CLR 19/11 A2988 RMK SLP121 DENSITY ALT 800FT
Conditions at: CYTZ (TORONTO IL VOR , ON, CA) observed 0300 UTC 24 June 2019
Temperature: 19.0°C (66°F)
Dewpoint: 11.0°C (52°F) [RH = 60%]
Pressure (altimeter): 29.88 inches Hg (1011.9 mb)
[Sea-level pressure: 1012.1 mb]
Winds: calm
Visibility: 9 miles (14 km)
Ceiling: at least 12,000 feet AGL
Clouds: sky clear below 12,000 feet AGL
Weather: no significant weather observed at this time

METAR text: CYTZ 240200Z AUTO 24004KT 230V290 9SM CLR 20/11 A2990 RMK SLP125 DENSITY ALT 900FT
Conditions at: CYTZ (TORONTO IL VOR , ON, CA) observed 0200 UTC 24 June 2019
Temperature: 20.0°C (68°F)
Dewpoint: 11.0°C (52°F) [RH = 56%]
Pressure (altimeter): 29.90 inches Hg (1012.6 mb)
[Sea-level pressure: 1012.5 mb]
Winds: from the WSW (240 degrees) at 5 MPH (4 knots; 2.1 m/s)
Visibility: 9 miles (14 km)
Ceiling: at least 12,000 feet AGL
Clouds: sky clear below 12,000 feet AGL
Weather: no significant weather observed at this time

METAR text: CYTZ 240100Z AUTO 18006KT 9SM CLR 21/12 A2989 RMK SLP124 DENSITY ALT 900FT
Conditions at: CYTZ (TORONTO IL VOR , ON, CA) observed 0100 UTC 24 June 2019
Temperature: 21.0°C (70°F)
Dewpoint: 12.0°C (54°F) [RH = 56%]
Pressure (altimeter): 29.89 inches Hg (1012.3 mb)
[Sea-level pressure: 1012.4 mb]
Winds: from the S (180 degrees) at 7 MPH (6 knots; 3.1 m/s)
Visibility: 9 miles (14 km)
Ceiling: at least 12,000 feet AGL
Clouds: sky clear below 12,000 feet AGL
Weather: no significant weather observed at this time

METAR text: CYTZ 240000Z AUTO 17007KT 9SM CLR 21/12 A2991 RMK SLP129 DENSITY ALT 1000FT
Conditions at: CYTZ (TORONTO IL VOR , ON, CA) observed 0000 UTC 24 June 2019
Temperature: 21.0°C (70°F)
Dewpoint: 12.0°C (54°F) [RH = 56%]
Pressure (altimeter): 29.91 inches Hg (1013.0 mb)
[Sea-level pressure: 1012.9 mb]
Winds: from the S (170 degrees) at 8 MPH (7 knots; 3.6 m/s)
Visibility: 9 miles (14 km)
Ceiling: at least 12,000 feet AGL
Clouds: sky clear below 12,000 feet AGL
Weather: no significant weather observed at this time

Forecast for: AMD
Text: TAF AMD CYTZ 251014Z 2510/2608 VRB03KT 6SM BR SCT003
Forecast period: 1000 to 1200 UTC 25 June 2019
Forecast type: FROM: standard forecast or significant change
Winds: variable direction winds at 3 MPH (3 knots; 1.5 m/s)
Visibility: 6 miles (10 km)
Ceiling: at least 12,000 feet AGL
Clouds: scattered clouds at 300 feet AGL
Weather: BR  (mist)
Text: TEMPO 2510/2512 3/4SM BR BKN003
Forecast period: 1000 to 1200 UTC 25 June 2019
Forecast type: TEMPORARY: The following changes expected for less than half the time period
Visibility: 0.75 miles (1.21 km)
Ceiling: 300 feet AGL
Clouds: broken clouds at 300 feet AGL
Weather: BR  (mist)
Text: FM251200 24010KT P6SM SCT020
Forecast period: 1200 to 1300 UTC 25 June 2019
Forecast type: FROM: standard forecast or significant change
Winds: from the WSW (240 degrees) at 12 MPH (10 knots; 5.1 m/s)
Visibility: 6 or more miles 10+ km)
Ceiling: at least 12,000 feet AGL
Clouds: scattered clouds at 2000 feet AGL
Weather: no significant weather forecast for this period
Text: TEMPO 2512/2517 5SM BR BKN020
Forecast period: 1200 to 1700 UTC 25 June 2019
Forecast type: TEMPORARY: The following changes expected for less than half the time period
Visibility: 5 miles (8 km)
Ceiling: 2000 feet AGL
Clouds: broken clouds at 2000 feet AGL
Weather: BR  (mist)
Text: BECMG 2513/2515 25012G22KT
Forecast period: 1300 to 1700 UTC 25 June 2019
Forecast type: BECOMING: Conditions expected to become as follows by 1500 UTC 25 June 2019
Winds: from the WSW (250 degrees) at 14 MPH (12 knots; 6.2 m/s)
gusting to 25 MPH (22 knots; 11.3 m/s)
Visibility: 6 or more miles 10+ km)
Ceiling: at least 12,000 feet AGL
Clouds: scattered clouds at 2000 feet AGL
Weather: no significant weather forecast for this period
Text: FM251700 25015G25KT P6SM BKN040
Forecast period: 1700 to 2100 UTC 25 June 2019
Forecast type: FROM: standard forecast or significant change
Winds: from the WSW (250 degrees) at 17 MPH (15 knots; 7.7 m/s)
gusting to 29 MPH (25 knots; 12.9 m/s)
Visibility: 6 or more miles 10+ km)
Ceiling: 4000 feet AGL
Clouds: broken clouds at 4000 feet AGL
Weather: no significant weather forecast for this period
Text: FM252100 27010G20KT P6SM SCT040
Forecast period: 2100 UTC 25 June 2019 to 0100 UTC 26 June 2019
Forecast type: FROM: standard forecast or significant change
Winds: from the W (270 degrees) at 12 MPH (10 knots; 5.1 m/s)
gusting to 23 MPH (20 knots; 10.3 m/s)
Visibility: 6 or more miles 10+ km)
Ceiling: at least 12,000 feet AGL
Clouds: scattered clouds at 4000 feet AGL
Weather: no significant weather forecast for this period
Text: FM260100 24008KT P6SM FEW040
Forecast period: 0100 to 0600 UTC 26 June 2019
Forecast type: FROM: standard forecast or significant change
Winds: from the WSW (240 degrees) at 9 MPH (8 knots; 4.1 m/s)
Visibility: 6 or more miles 10+ km)
Ceiling: at least 12,000 feet AGL
Clouds: few clouds at 4000 feet AGL
Weather: no significant weather forecast for this period
Text: FM260600 24008KT P6SM BKN060 RMK FCST BASED ON AUTO OBS. NXT FCST BY 251400Z
Forecast period: 0600 to 0800 UTC 26 June 2019
Forecast type: FROM: standard forecast or significant change
Winds: from the WSW (240 degrees) at 9 MPH (8 knots; 4.1 m/s)
Visibility: 6 or more miles 10+ km)
Ceiling: 6000 feet AGL
Clouds: broken clouds at 6000 feet AGL
Weather: no significant weather forecast for this period